createdAt,value
2023-04-11T00:00:59.919Z,2.60
2023-04-11T00:02:00.023Z,2.40
2023-04-11T00:03:00.485Z,2.50
2023-04-11T00:04:00.154Z,2.40
2023-04-11T00:04:59.967Z,2.40
2023-04-11T00:05:59.874Z,2.20
2023-04-11T00:06:59.880Z,2.00
2023-04-11T00:07:59.842Z,2.70
2023-04-11T00:08:59.883Z,2.30
2023-04-11T00:09:59.839Z,2.40
2023-04-11T00:10:59.798Z,2.60
2023-04-11T00:11:59.789Z,4.00
2023-04-11T00:12:59.796Z,2.70
2023-04-11T00:13:59.787Z,2.70
2023-04-11T00:14:59.754Z,2.90
2023-04-11T00:15:59.831Z,2.70
2023-04-11T00:16:59.728Z,3.00
2023-04-11T00:17:59.766Z,2.40
2023-04-11T00:18:59.712Z,2.60
2023-04-11T00:19:59.716Z,2.60
2023-04-11T00:20:59.693Z,2.40
2023-04-11T00:21:59.721Z,2.30
2023-04-11T00:22:59.679Z,2.50
2023-04-11T00:23:59.677Z,1.80
2023-04-11T00:24:59.648Z,2.20
2023-04-11T00:25:59.673Z,2.30
2023-04-11T00:26:59.621Z,2.10
2023-04-11T00:27:59.641Z,2.00
2023-04-11T00:28:59.625Z,2.10
2023-04-11T00:29:59.585Z,2.20
2023-04-11T00:30:59.589Z,1.90
2023-04-11T00:31:59.633Z,2.30
2023-04-11T00:32:59.585Z,1.90
2023-04-11T00:33:59.572Z,2.10
2023-04-11T00:34:59.599Z,2.20
2023-04-11T00:35:59.618Z,1.80
2023-04-11T00:36:59.524Z,2.00
2023-04-11T00:37:59.500Z,2.00
2023-04-11T00:38:59.490Z,2.00
2023-04-11T00:39:59.477Z,2.00
2023-04-11T00:40:59.460Z,2.00
2023-04-11T00:41:59.599Z,1.80
2023-04-11T00:42:59.445Z,1.90
2023-04-11T00:43:59.449Z,1.90
2023-04-11T00:44:59.420Z,1.90
2023-04-11T00:45:59.460Z,2.00
2023-04-11T00:46:59.427Z,2.10
2023-04-11T00:47:59.413Z,1.90
2023-04-11T00:48:59.410Z,2.20
2023-04-11T00:49:59.382Z,2.10
2023-04-11T00:50:59.347Z,2.10
2023-04-11T00:51:59.366Z,2.00
2023-04-11T00:52:59.328Z,2.00
2023-04-11T00:53:59.379Z,1.80
2023-04-11T00:54:59.317Z,2.10
2023-04-11T00:55:59.309Z,1.80
2023-04-11T00:56:59.285Z,1.90
2023-04-11T00:57:59.270Z,2.00
2023-04-11T00:58:59.267Z,1.80
2023-04-11T00:59:59.250Z,1.70
2023-04-11T01:00:59.266Z,1.80
2023-04-11T01:01:59.330Z,1.80
2023-04-11T01:02:59.353Z,1.80
2023-04-11T01:03:59.331Z,1.90
2023-04-11T01:04:59.211Z,1.90
2023-04-11T01:05:59.190Z,1.90
2023-04-11T01:06:59.192Z,2.10
2023-04-11T01:07:59.178Z,1.90
2023-04-11T01:08:59.168Z,2.10
2023-04-11T01:09:59.177Z,1.80
2023-04-11T01:10:59.126Z,1.70
2023-04-11T01:11:59.122Z,2.00
2023-04-11T01:12:59.124Z,1.80
2023-04-11T01:13:59.118Z,1.90
2023-04-11T01:14:59.127Z,1.60
2023-04-11T01:15:59.095Z,1.80
2023-04-11T01:16:59.255Z,1.90
2023-04-11T01:17:59.128Z,1.80
2023-04-11T01:18:59.045Z,2.10
2023-04-11T01:19:59.045Z,1.70
2023-04-11T01:20:59.044Z,1.80
2023-04-11T01:21:59.095Z,1.70
2023-04-11T01:22:58.992Z,1.80
2023-04-11T01:23:58.980Z,1.80
2023-04-11T01:24:59.128Z,1.60
2023-04-11T01:25:58.967Z,1.70
2023-04-11T01:26:58.953Z,1.70
2023-04-11T01:27:58.946Z,1.60
2023-04-11T01:28:58.987Z,2.00
2023-04-11T01:29:58.959Z,1.80
2023-04-11T01:30:58.953Z,1.90
2023-04-11T01:31:58.929Z,1.70
2023-04-11T01:32:58.950Z,1.60
2023-04-11T01:33:58.875Z,1.70
2023-04-11T01:34:58.931Z,1.90
2023-04-11T01:35:58.888Z,1.70
2023-04-11T01:36:58.851Z,1.70
2023-04-11T01:37:58.873Z,1.60
2023-04-11T01:38:58.826Z,1.80
2023-04-11T01:39:58.827Z,1.70
2023-04-11T01:40:58.798Z,1.40
2023-04-11T01:41:58.792Z,1.60
2023-04-11T01:42:58.785Z,1.80
2023-04-11T01:43:58.762Z,1.70
2023-04-11T01:44:58.768Z,1.90
2023-04-11T01:45:58.789Z,1.70
2023-04-11T01:46:58.722Z,1.80
2023-04-11T01:47:58.765Z,1.90
2023-04-11T01:48:58.929Z,1.80
2023-04-11T01:49:58.703Z,2.00
2023-04-11T01:50:58.690Z,1.90
2023-04-11T01:51:58.685Z,1.70
2023-04-11T01:52:58.669Z,1.80
2023-04-11T01:53:58.664Z,1.70
2023-04-11T01:54:58.639Z,1.40
2023-04-11T01:55:58.665Z,1.90
2023-04-11T01:56:58.614Z,1.60
2023-04-11T01:57:58.624Z,1.60
2023-04-11T01:58:58.613Z,1.80
2023-04-11T01:59:58.608Z,1.70
2023-04-11T02:00:58.561Z,1.70
2023-04-11T02:01:58.805Z,1.90
2023-04-11T02:02:58.779Z,1.70
2023-04-11T02:03:58.661Z,1.70
2023-04-11T02:04:58.541Z,1.60
2023-04-11T02:05:58.526Z,1.70
2023-04-11T02:06:58.517Z,1.50
2023-04-11T02:07:58.524Z,1.70
2023-04-11T02:08:58.483Z,1.50
2023-04-11T02:09:58.501Z,1.60
2023-04-11T02:10:58.479Z,1.30
2023-04-11T02:11:58.461Z,1.40
2023-04-11T02:12:58.443Z,1.30
2023-04-11T02:13:58.465Z,1.30
2023-04-11T02:14:58.422Z,1.30
2023-04-11T02:15:58.475Z,1.40
2023-04-11T02:16:58.401Z,1.40
2023-04-11T02:17:58.442Z,1.40
2023-04-11T02:18:58.554Z,1.30
2023-04-11T02:19:58.375Z,1.30
2023-04-11T02:20:58.456Z,1.30
2023-04-11T02:21:58.382Z,1.30
2023-04-11T02:22:58.329Z,1.50
2023-04-11T02:23:59.709Z,1.40
2023-04-11T02:24:58.317Z,1.40
2023-04-11T02:25:58.293Z,1.20
2023-04-11T02:26:58.346Z,1.20
2023-04-11T02:27:58.306Z,1.40
2023-04-11T02:28:58.258Z,1.30
2023-04-11T02:29:58.293Z,1.40
2023-04-11T02:30:58.324Z,1.10
2023-04-11T02:31:58.329Z,1.00
2023-04-11T02:32:58.283Z,1.20
2023-04-11T02:33:58.208Z,1.20
2023-04-11T02:34:58.206Z,1.20
2023-04-11T02:35:58.232Z,1.20
2023-04-11T02:36:58.166Z,1.10
2023-04-11T02:37:58.171Z,1.20
2023-04-11T02:38:58.282Z,1.20
2023-04-11T02:39:58.167Z,1.10
2023-04-11T02:40:58.139Z,1.20
2023-04-11T02:41:58.161Z,1.20
2023-04-11T02:42:58.098Z,0.90
2023-04-11T02:43:58.267Z,1.20
2023-04-11T02:44:58.125Z,1.20
2023-04-11T02:46:05.827Z,1.50
2023-04-11T02:46:58.086Z,1.10
2023-04-11T02:47:58.077Z,1.60
2023-04-11T02:48:58.183Z,1.00
2023-04-11T02:49:58.085Z,1.00
2023-04-11T02:50:58.034Z,1.10
2023-04-11T02:51:58.024Z,1.20
2023-04-11T02:52:57.998Z,1.10
2023-04-11T02:53:57.991Z,1.30
2023-04-11T02:54:58.085Z,1.10
2023-04-11T02:55:57.975Z,1.00
2023-04-11T02:56:57.958Z,0.90
2023-04-11T02:57:57.929Z,1.00
2023-04-11T02:58:58.573Z,0.90
2023-04-11T02:59:57.940Z,0.90
2023-04-11T03:00:57.906Z,0.90
2023-04-11T03:01:58.010Z,1.00
2023-04-11T03:02:57.988Z,1.10
2023-04-11T03:03:57.989Z,1.00
2023-04-11T03:04:57.939Z,1.10
2023-04-11T03:05:57.880Z,1.10
2023-04-11T03:06:57.875Z,1.10
2023-04-11T03:07:57.910Z,1.10
2023-04-11T03:08:58.011Z,1.30
2023-04-11T03:09:57.916Z,1.00
2023-04-11T03:10:57.833Z,1.10
2023-04-11T03:11:57.778Z,1.20
2023-04-11T03:12:57.776Z,0.90
2023-04-11T03:13:57.771Z,1.00
2023-04-11T03:14:57.748Z,1.10
2023-04-11T03:15:57.792Z,1.00
2023-04-11T03:16:57.720Z,1.00
2023-04-11T03:17:57.723Z,1.10
2023-04-11T03:18:57.840Z,1.20
2023-04-11T03:19:57.685Z,1.20
2023-04-11T03:20:57.708Z,1.10
2023-04-11T03:21:57.701Z,1.30
2023-04-11T03:22:57.727Z,1.10
2023-04-11T03:23:57.654Z,1.00
2023-04-11T03:24:57.630Z,1.10
2023-04-11T03:25:57.641Z,1.10
2023-04-11T03:26:57.616Z,1.20
2023-04-11T03:27:57.611Z,1.00
2023-04-11T03:28:57.820Z,1.00
2023-04-11T03:29:57.608Z,1.10
2023-04-11T03:30:57.628Z,1.10
2023-04-11T03:31:57.580Z,1.20
2023-04-11T03:32:57.578Z,1.10
2023-04-11T03:33:57.569Z,1.30
2023-04-11T03:34:57.569Z,1.10
2023-04-11T03:35:57.588Z,1.00
2023-04-11T03:36:57.536Z,0.90
2023-04-11T03:37:57.531Z,1.30
2023-04-11T03:38:57.680Z,0.90
2023-04-11T03:39:57.534Z,1.10
2023-04-11T03:40:57.500Z,0.90
2023-04-11T03:41:57.466Z,0.90
2023-04-11T03:42:57.433Z,1.00
2023-04-11T03:43:57.576Z,1.00
2023-04-11T03:44:57.408Z,0.80
2023-04-11T03:45:57.436Z,1.00
2023-04-11T03:46:57.512Z,1.00
2023-04-11T03:47:57.418Z,0.90
2023-04-11T03:48:57.682Z,1.30
2023-04-11T03:49:57.423Z,0.90
2023-04-11T03:50:57.371Z,1.20
2023-04-11T03:51:57.333Z,0.90
2023-04-11T03:52:57.338Z,0.90
2023-04-11T03:53:57.317Z,0.80
2023-04-11T03:54:57.313Z,1.10
2023-04-11T03:55:57.306Z,0.70
2023-04-11T03:56:57.279Z,1.00
2023-04-11T03:57:57.263Z,1.00
2023-04-11T03:58:57.404Z,0.90
2023-04-11T03:59:57.241Z,0.90
2023-04-11T04:00:57.278Z,1.10
2023-04-11T04:01:57.315Z,0.80
2023-04-11T04:02:57.437Z,0.90
2023-04-11T04:03:57.673Z,1.00
2023-04-11T04:04:57.215Z,0.90
2023-04-11T04:05:57.207Z,1.10
2023-04-11T04:06:57.177Z,1.00
2023-04-11T04:07:57.146Z,1.00
2023-04-11T04:08:57.134Z,0.90
2023-04-11T04:09:57.118Z,0.70
2023-04-11T04:10:57.150Z,0.90
2023-04-11T04:11:57.111Z,1.10
2023-04-11T04:12:57.093Z,1.00
2023-04-11T04:13:57.328Z,1.00
2023-04-11T04:14:57.099Z,0.80
2023-04-11T04:15:57.083Z,0.90
2023-04-11T04:16:57.082Z,1.00
2023-04-11T04:17:57.114Z,1.10
2023-04-11T04:18:57.027Z,1.00
2023-04-11T04:19:57.008Z,1.00
2023-04-11T04:20:57.008Z,0.90
2023-04-11T04:21:56.984Z,0.80
2023-04-11T04:22:56.985Z,0.80
2023-04-11T04:23:57.234Z,0.80
2023-04-11T04:24:56.966Z,0.90
2023-04-11T04:25:57.831Z,0.90
2023-04-11T04:26:56.957Z,0.80
2023-04-11T04:27:56.923Z,0.70
2023-04-11T04:28:56.911Z,1.00
2023-04-11T04:30:04.343Z,0.90
2023-04-11T04:30:56.950Z,1.00
2023-04-11T04:31:56.939Z,1.10
2023-04-11T04:32:56.950Z,1.00
2023-04-11T04:33:56.979Z,0.90
2023-04-11T04:34:56.852Z,1.10
2023-04-11T04:35:56.887Z,0.90
2023-04-11T04:36:56.829Z,0.90
2023-04-11T04:37:56.835Z,0.60
2023-04-11T04:38:56.803Z,0.90
2023-04-11T04:39:56.799Z,0.90
2023-04-11T04:40:56.797Z,1.00
2023-04-11T04:41:56.808Z,1.00
2023-04-11T04:42:56.755Z,0.90
2023-04-11T04:43:56.966Z,1.20
2023-04-11T04:44:56.730Z,1.20
2023-04-11T04:45:56.799Z,1.00
2023-04-11T04:46:56.797Z,1.10
2023-04-11T04:47:56.727Z,0.90
2023-04-11T04:48:56.688Z,0.90
2023-04-11T04:49:56.678Z,0.90
2023-04-11T04:50:56.667Z,1.00
2023-04-11T04:51:56.795Z,1.10
2023-04-11T04:52:56.673Z,1.10
2023-04-11T04:53:56.816Z,1.10
2023-04-11T04:54:56.620Z,0.90
2023-04-11T04:55:56.638Z,1.10
2023-04-11T04:56:56.641Z,1.20
2023-04-11T04:57:56.579Z,1.00
2023-04-11T04:58:56.644Z,1.00
2023-04-11T04:59:56.568Z,1.10
2023-04-11T05:00:56.617Z,0.90
2023-04-11T05:01:56.613Z,1.00
2023-04-11T05:02:56.695Z,1.00
2023-04-11T05:03:56.950Z,1.30
2023-04-11T05:04:56.503Z,1.10
2023-04-11T05:05:56.496Z,0.90
2023-04-11T05:06:56.890Z,1.00
2023-04-11T05:07:56.509Z,1.00
2023-04-11T05:08:56.539Z,0.90
2023-04-11T05:09:56.459Z,1.20
2023-04-11T05:10:56.444Z,1.30
2023-04-11T05:11:56.626Z,1.10
2023-04-11T05:12:56.425Z,0.90
2023-04-11T05:13:56.620Z,1.20
2023-04-11T05:14:56.396Z,1.10
2023-04-11T05:15:56.390Z,1.30
2023-04-11T05:16:56.407Z,0.90
2023-04-11T05:17:56.388Z,1.10
2023-04-11T05:18:56.386Z,1.30
2023-04-11T05:19:56.504Z,1.40
2023-04-11T05:20:56.340Z,1.30
2023-04-11T05:21:56.359Z,1.10
2023-04-11T05:22:56.336Z,1.30
2023-04-11T05:23:56.639Z,1.50
2023-04-11T05:24:56.343Z,1.30
2023-04-11T05:25:56.275Z,1.20
2023-04-11T05:26:56.298Z,1.20
2023-04-11T05:27:56.351Z,1.10
2023-04-11T05:28:56.272Z,1.30
2023-04-11T05:29:56.253Z,1.20
2023-04-11T05:30:56.300Z,1.40
2023-04-11T05:31:56.291Z,1.30
2023-04-11T05:32:56.229Z,1.30
2023-04-11T05:33:56.345Z,1.40
2023-04-11T05:34:59.036Z,1.10
2023-04-11T05:35:56.201Z,1.10
2023-04-11T05:36:56.167Z,1.30
2023-04-11T05:37:56.329Z,1.40
2023-04-11T05:38:56.141Z,1.20
2023-04-11T05:39:56.205Z,1.30
2023-04-11T05:40:56.124Z,1.40
2023-04-11T05:41:56.139Z,1.00
2023-04-11T05:42:56.125Z,1.10
2023-04-11T05:43:56.253Z,1.20
2023-04-11T05:44:56.074Z,1.40
2023-04-11T05:45:56.114Z,1.40
2023-04-11T05:46:56.044Z,1.30
2023-04-11T05:47:56.066Z,1.20
2023-04-11T05:48:56.037Z,1.10
2023-04-11T05:49:56.040Z,1.30
2023-04-11T05:50:56.030Z,1.00
2023-04-11T05:51:55.989Z,1.00
2023-04-11T05:52:55.999Z,1.00
2023-04-11T05:53:56.175Z,1.10
2023-04-11T05:54:55.955Z,1.30
2023-04-11T05:55:55.969Z,1.00
2023-04-11T05:56:56.725Z,1.30
2023-04-11T05:57:55.929Z,1.10
2023-04-11T05:58:55.913Z,0.90
2023-04-11T05:59:55.900Z,1.00
2023-04-11T06:00:55.892Z,1.40
2023-04-11T06:01:55.912Z,0.90
2023-04-11T06:02:55.969Z,0.80
2023-04-11T06:03:56.207Z,1.00
2023-04-11T06:04:55.913Z,1.20
2023-04-11T06:05:55.829Z,1.20
2023-04-11T06:06:55.834Z,1.20
2023-04-11T06:07:55.906Z,1.10
2023-04-11T06:08:55.884Z,1.10
2023-04-11T06:09:55.782Z,1.00
2023-04-11T06:10:55.794Z,0.90
2023-04-11T06:11:55.757Z,1.00
2023-04-11T06:12:55.787Z,1.00
2023-04-11T06:13:55.930Z,1.20
2023-04-11T06:14:55.726Z,1.10
2023-04-11T06:15:55.763Z,1.00
2023-04-11T06:16:55.710Z,1.00
2023-04-11T06:17:55.829Z,1.10
2023-04-11T06:18:55.677Z,1.20
2023-04-11T06:19:55.662Z,1.10
2023-04-11T06:20:55.663Z,0.90
2023-04-11T06:21:55.641Z,1.10
2023-04-11T06:22:55.858Z,1.00
2023-04-11T06:23:55.737Z,1.00
2023-04-11T06:24:55.627Z,1.10
2023-04-11T06:25:55.612Z,1.10
2023-04-11T06:26:55.598Z,1.20
2023-04-11T06:27:55.587Z,1.10
2023-04-11T06:28:55.664Z,1.10
2023-04-11T06:29:55.552Z,0.90
2023-04-11T06:30:55.575Z,1.10
2023-04-11T06:31:55.544Z,1.20
2023-04-11T06:32:55.637Z,1.20
2023-04-11T06:33:55.760Z,1.10
2023-04-11T06:34:55.527Z,1.20
2023-04-11T06:35:55.574Z,1.10
2023-04-11T06:36:55.487Z,1.20
2023-04-11T06:37:55.494Z,1.10
2023-04-11T06:38:55.475Z,1.20
2023-04-11T06:39:55.450Z,1.20
2023-04-11T06:40:55.448Z,1.20
2023-04-11T06:41:55.422Z,1.20
2023-04-11T06:42:55.837Z,1.20
2023-04-11T06:43:55.861Z,1.40
2023-04-11T06:44:55.395Z,1.20
2023-04-11T06:45:55.387Z,1.40
2023-04-11T06:46:55.410Z,1.30
2023-04-11T06:47:55.420Z,1.30
2023-04-11T06:48:55.354Z,1.30
2023-04-11T06:49:55.330Z,1.20
2023-04-11T06:50:55.335Z,1.30
2023-04-11T06:51:55.315Z,1.30
2023-04-11T06:52:55.321Z,1.50
2023-04-11T06:53:55.483Z,1.30
2023-04-11T06:54:55.362Z,1.10
2023-04-11T06:55:55.295Z,1.10
2023-04-11T06:56:55.279Z,1.10
2023-04-11T06:57:55.246Z,1.10
2023-04-11T06:58:55.319Z,1.20
2023-04-11T06:59:55.222Z,1.20
2023-04-11T07:00:55.217Z,1.20
2023-04-11T07:01:55.272Z,1.30
2023-04-11T07:02:55.449Z,1.30
2023-04-11T07:03:55.828Z,1.20
2023-04-11T07:04:55.450Z,1.10
2023-04-11T07:05:55.170Z,1.10
2023-04-11T07:06:55.182Z,1.10
2023-04-11T07:07:55.142Z,1.20
2023-04-11T07:08:55.179Z,1.10
2023-04-11T07:09:55.145Z,1.10
2023-04-11T07:10:55.121Z,1.00
2023-04-11T07:11:55.095Z,1.30
2023-04-11T07:12:55.078Z,1.20
2023-04-11T07:13:55.254Z,1.20
2023-04-11T07:14:55.105Z,1.30
2023-04-11T07:15:55.116Z,0.90
2023-04-11T07:16:55.038Z,1.20
2023-04-11T07:17:55.050Z,1.30
2023-04-11T07:18:55.036Z,1.20
2023-04-11T07:19:55.091Z,0.90
2023-04-11T07:20:55.006Z,0.90
2023-04-11T07:21:54.975Z,1.00
2023-04-11T07:22:54.976Z,1.30
2023-04-11T07:23:55.321Z,1.10
2023-04-11T07:24:54.960Z,1.00
2023-04-11T07:25:54.930Z,1.10
2023-04-11T07:26:54.945Z,1.00
2023-04-11T07:27:54.912Z,1.00
2023-04-11T07:28:54.944Z,0.90
2023-04-11T07:29:54.905Z,1.10
2023-04-11T07:30:54.896Z,1.10
2023-04-11T07:31:54.940Z,1.00
2023-04-11T07:32:54.888Z,0.70
2023-04-11T07:33:55.156Z,0.90
2023-04-11T07:34:54.856Z,0.70
2023-04-11T07:35:54.863Z,1.00
2023-04-11T07:36:54.865Z,1.00
2023-04-11T07:37:54.801Z,1.00
2023-04-11T07:38:54.817Z,0.70
2023-04-11T07:39:54.778Z,0.70
2023-04-11T07:40:54.773Z,1.00
2023-04-11T07:41:54.746Z,0.50
2023-04-11T07:42:54.747Z,0.90
2023-04-11T07:43:55.052Z,0.70
2023-04-11T07:44:54.807Z,1.00
2023-04-11T07:45:54.864Z,0.70
2023-04-11T07:46:54.733Z,0.80
2023-04-11T07:47:54.749Z,0.80
2023-04-11T07:48:54.707Z,0.80
2023-04-11T07:49:54.713Z,0.70
2023-04-11T07:50:54.691Z,0.70
2023-04-11T07:51:54.633Z,0.70
2023-04-11T07:52:54.648Z,0.60
2023-04-11T07:53:54.862Z,0.70
2023-04-11T07:54:54.615Z,0.80
2023-04-11T07:55:54.614Z,0.50
2023-04-11T07:56:54.597Z,0.60
2023-04-11T07:57:54.634Z,0.70
2023-04-11T07:58:54.574Z,0.90
2023-04-11T07:59:54.548Z,0.50
2023-04-11T08:00:54.540Z,0.70
2023-04-11T08:01:54.575Z,0.80
2023-04-11T08:02:54.742Z,0.80
2023-04-11T08:03:54.975Z,0.70
2023-04-11T08:04:54.609Z,0.50
2023-04-11T08:05:54.482Z,1.00
2023-04-11T08:06:54.520Z,0.70
2023-04-11T08:07:54.472Z,0.90
2023-04-11T08:08:54.465Z,0.70
2023-04-11T08:09:54.441Z,0.60
2023-04-11T08:10:54.428Z,0.60
2023-04-11T08:11:54.426Z,0.60
2023-04-11T08:12:54.409Z,0.60
2023-04-11T08:13:54.651Z,0.60
2023-04-11T08:14:54.442Z,0.80
2023-04-11T08:15:54.397Z,0.60
2023-04-11T08:16:54.455Z,0.60
2023-04-11T08:17:54.397Z,0.70
2023-04-11T08:18:54.356Z,0.60
2023-04-11T08:19:54.355Z,0.60
2023-04-11T08:20:54.355Z,0.70
2023-04-11T08:21:54.610Z,0.60
2023-04-11T08:22:54.302Z,0.60
2023-04-11T08:23:54.574Z,0.60
2023-04-11T08:24:54.281Z,0.60
2023-04-11T08:25:54.278Z,0.70
2023-04-11T08:26:54.261Z,0.60
2023-04-11T08:27:54.302Z,0.50
2023-04-11T08:28:54.374Z,0.60
2023-04-11T08:29:54.227Z,0.40
2023-04-11T08:30:54.235Z,0.50
2023-04-11T08:31:54.200Z,0.40
2023-04-11T08:32:54.225Z,0.60
2023-04-11T08:33:54.337Z,0.60
2023-04-11T08:34:54.236Z,0.60
2023-04-11T08:35:54.294Z,0.60
2023-04-11T08:36:54.162Z,0.60
2023-04-11T08:37:54.134Z,0.60
2023-04-11T08:38:54.125Z,0.50
2023-04-11T08:39:54.186Z,0.70
2023-04-11T08:40:54.100Z,0.50
2023-04-11T08:41:54.084Z,0.60
2023-04-11T08:42:54.076Z,0.70
2023-04-11T08:43:54.530Z,0.60
2023-04-11T08:44:54.126Z,0.50
2023-04-11T08:45:54.096Z,0.60
2023-04-11T08:46:54.115Z,0.50
2023-04-11T08:47:54.146Z,0.90
2023-04-11T08:48:54.015Z,0.50
2023-04-11T08:49:54.006Z,1.00
2023-04-11T08:50:53.981Z,0.50
2023-04-11T08:51:53.990Z,0.40
2023-04-11T08:52:53.954Z,0.70
2023-04-11T08:53:54.237Z,0.40
2023-04-11T08:54:53.997Z,0.50
2023-04-11T08:55:53.953Z,0.70
2023-04-11T08:56:53.918Z,0.40
2023-04-11T08:57:54.831Z,0.50
2023-04-11T08:58:54.220Z,0.60
2023-04-11T08:59:53.975Z,0.80
2023-04-11T09:00:53.884Z,0.60
2023-04-11T09:01:53.952Z,0.60
2023-04-11T09:02:53.911Z,0.70
2023-04-11T09:04:13.520Z,0.50
2023-04-11T09:04:53.839Z,0.70
2023-04-11T09:05:53.807Z,0.60
2023-04-11T09:06:53.792Z,0.80
2023-04-11T09:07:53.795Z,0.60
2023-04-11T09:08:53.802Z,0.60
2023-04-11T09:09:53.803Z,0.70
2023-04-11T09:10:53.812Z,0.50
2023-04-11T09:11:53.781Z,0.70
2023-04-11T09:12:53.746Z,0.60
2023-04-11T09:13:54.190Z,0.60
2023-04-11T09:14:53.743Z,0.50
2023-04-11T09:15:53.793Z,0.50
2023-04-11T09:16:53.831Z,0.60
2023-04-11T09:17:53.734Z,0.60
2023-04-11T09:18:53.688Z,0.60
2023-04-11T09:19:53.694Z,0.60
2023-04-11T09:20:53.667Z,0.50
2023-04-11T09:21:53.696Z,0.70
2023-04-11T09:22:53.695Z,0.50
2023-04-11T09:23:53.656Z,0.50
2023-04-11T09:24:53.687Z,0.50
2023-04-11T09:25:53.598Z,0.60
2023-04-11T09:26:53.602Z,0.80
2023-04-11T09:27:53.876Z,0.50
2023-04-11T09:28:53.989Z,0.60
2023-04-11T09:29:53.568Z,0.70
2023-04-11T09:30:53.562Z,0.60
2023-04-11T09:31:53.551Z,0.60
2023-04-11T09:32:53.651Z,0.60
2023-04-11T09:33:53.657Z,0.60
2023-04-11T09:34:53.519Z,0.60
2023-04-11T09:35:53.575Z,0.60
2023-04-11T09:36:54.317Z,0.50
2023-04-11T09:37:53.470Z,0.60
2023-04-11T09:38:53.456Z,0.70
2023-04-11T09:39:53.470Z,0.70
2023-04-11T09:40:53.421Z,0.60
2023-04-11T09:41:53.512Z,0.70
2023-04-11T09:42:53.422Z,0.50
2023-04-11T09:43:53.484Z,0.80
2023-04-11T09:44:53.414Z,0.50
2023-04-11T09:45:54.772Z,1.00
2023-04-11T09:46:53.427Z,0.60
2023-04-11T09:47:53.397Z,0.80
2023-04-11T09:48:53.338Z,0.60
2023-04-11T09:49:53.402Z,0.50
2023-04-11T09:50:53.521Z,0.60
2023-04-11T09:51:53.331Z,0.70
2023-04-11T09:52:53.300Z,0.60
2023-04-11T09:53:53.280Z,0.50
2023-04-11T09:54:53.298Z,0.60
2023-04-11T09:55:53.264Z,0.70
2023-04-11T09:56:53.262Z,0.60
2023-04-11T09:57:53.258Z,0.60
2023-04-11T09:58:53.378Z,0.70
2023-04-11T09:59:53.509Z,0.70
2023-04-11T10:00:55.259Z,0.60
2023-04-11T10:01:53.486Z,0.70
2023-04-11T10:02:53.813Z,0.80
2023-04-11T10:03:53.245Z,0.70
2023-04-11T10:04:53.259Z,1.00
2023-04-11T10:05:53.153Z,0.70
2023-04-11T10:06:53.191Z,0.80
2023-04-11T10:07:53.119Z,0.90
2023-04-11T10:08:53.106Z,0.50
2023-04-11T10:09:53.221Z,0.50
2023-04-11T10:10:53.134Z,0.70
2023-04-11T10:11:53.101Z,0.70
2023-04-11T10:12:53.095Z,0.80
2023-04-11T10:13:53.057Z,0.60
2023-04-11T10:14:55.512Z,0.90
2023-04-11T10:15:53.142Z,0.60
2023-04-11T10:16:53.021Z,0.70
2023-04-11T10:17:53.080Z,0.70
2023-04-11T10:18:53.028Z,0.70
2023-04-11T10:19:53.267Z,0.70
2023-04-11T10:20:54.442Z,0.60
2023-04-11T10:21:52.974Z,0.60
2023-04-11T10:22:53.006Z,0.70
2023-04-11T10:23:52.974Z,0.80
2023-04-11T10:24:52.947Z,0.80
2023-04-11T10:25:52.929Z,0.80
2023-04-11T10:26:53.059Z,0.70
2023-04-11T10:27:52.996Z,0.90
2023-04-11T10:28:52.918Z,0.90
2023-04-11T10:29:52.984Z,0.80
2023-04-11T10:30:52.906Z,0.80
2023-04-11T10:31:52.962Z,0.90
2023-04-11T10:32:52.892Z,0.70
2023-04-11T10:33:52.836Z,0.70
2023-04-11T10:34:52.842Z,0.80
2023-04-11T10:35:52.850Z,1.10
2023-04-11T10:36:52.801Z,0.80
2023-04-11T10:37:53.110Z,1.00
2023-04-11T10:38:52.774Z,0.60
2023-04-11T10:39:52.907Z,1.00
2023-04-11T10:41:02.357Z,1.00
2023-04-11T10:41:52.746Z,0.90
2023-04-11T10:42:52.866Z,1.00
2023-04-11T10:43:52.793Z,0.70
2023-04-11T10:44:52.713Z,0.90
2023-04-11T10:45:53.485Z,0.80
2023-04-11T10:48:15.417Z,0.90
2023-04-11T10:49:13.907Z,0.90
2023-04-11T10:50:13.823Z,0.70
2023-04-11T10:51:13.819Z,1.10
2023-04-11T10:52:13.816Z,1.00
2023-04-11T10:53:13.802Z,0.60
2023-04-11T10:54:13.816Z,0.80
2023-04-11T10:55:13.796Z,0.90
2023-04-11T10:56:15.541Z,0.80
2023-04-11T10:57:15.532Z,0.80
2023-04-11T10:58:13.736Z,0.70
2023-04-11T10:59:13.774Z,0.80
2023-04-11T11:00:13.935Z,1.30
2023-04-11T11:01:21.443Z,1.00
2023-04-11T11:02:13.869Z,0.90
2023-04-11T11:03:13.981Z,0.80
2023-04-11T11:04:14.325Z,0.90
2023-04-11T11:05:13.679Z,1.10
2023-04-11T11:06:13.649Z,0.90
2023-04-11T11:07:13.665Z,0.80
2023-04-11T11:08:13.655Z,0.90
2023-04-11T11:09:13.666Z,0.90
2023-04-11T11:10:13.703Z,0.80
2023-04-11T11:11:13.605Z,1.10
2023-04-11T11:12:13.603Z,0.70
2023-04-11T11:13:13.908Z,1.00
2023-04-11T11:14:13.711Z,0.90
2023-04-11T11:15:13.591Z,0.60
2023-04-11T11:16:13.555Z,1.00
2023-04-11T11:17:13.588Z,0.90
2023-04-11T11:18:13.511Z,0.80
2023-04-11T11:19:13.511Z,0.70
2023-04-11T11:20:13.500Z,1.00
2023-04-11T11:21:17.109Z,1.00
2023-04-11T11:22:13.484Z,0.90
2023-04-11T11:23:13.484Z,0.90
2023-04-11T11:24:13.471Z,0.80
2023-04-11T11:25:13.518Z,0.70
2023-04-11T11:26:13.470Z,0.90
2023-04-11T11:27:13.413Z,1.10
2023-04-11T11:28:13.439Z,0.70
2023-04-11T11:29:13.407Z,0.70
2023-04-11T11:30:13.424Z,0.90
2023-04-11T11:31:13.394Z,0.80
2023-04-11T11:32:13.433Z,0.80
2023-04-11T11:33:13.361Z,0.90
2023-04-11T11:34:23.679Z,1.00
2023-04-11T11:35:13.416Z,0.80
2023-04-11T11:36:13.477Z,1.00
2023-04-11T11:37:13.310Z,0.60
2023-04-11T11:38:13.293Z,0.90
2023-04-11T11:39:13.318Z,0.70
2023-04-11T11:40:13.366Z,0.90
2023-04-11T11:41:13.261Z,0.90
2023-04-11T11:42:13.276Z,1.00
2023-04-11T11:43:13.251Z,0.80
2023-04-11T11:44:13.293Z,1.10
2023-04-11T11:45:13.272Z,0.90
2023-04-11T11:46:15.133Z,0.70
2023-04-11T11:47:13.545Z,0.80
2023-04-11T11:48:13.236Z,1.10
2023-04-11T11:49:14.407Z,0.80
2023-04-11T11:50:13.175Z,0.90
2023-04-11T11:51:13.222Z,1.00
2023-04-11T11:52:13.189Z,1.00
2023-04-11T11:53:13.134Z,1.10
2023-04-11T11:54:13.111Z,0.90
2023-04-11T11:55:13.893Z,0.90
2023-04-11T11:56:13.147Z,1.10
2023-04-11T11:57:13.201Z,1.20
2023-04-11T11:58:13.076Z,0.80
2023-04-11T11:59:13.079Z,0.90
2023-04-11T12:00:13.104Z,1.00
2023-04-11T12:02:13.099Z,1.40
2023-04-11T12:03:13.099Z,0.90
2023-04-11T12:04:13.986Z,1.00
2023-04-11T12:05:13.052Z,1.20
2023-04-11T12:06:13.107Z,0.90
2023-04-11T12:07:12.998Z,0.80
2023-04-11T12:08:13.009Z,0.80
2023-04-11T12:09:13.015Z,0.90
2023-04-11T12:10:20.389Z,0.90
2023-04-11T12:11:12.941Z,1.10
2023-04-11T12:12:12.920Z,1.00
2023-04-11T12:13:12.972Z,0.90
2023-04-11T12:14:12.918Z,0.80
2023-04-11T12:15:12.975Z,0.90
2023-04-11T12:16:12.951Z,1.00
2023-04-11T12:17:12.864Z,1.20
2023-04-11T12:18:12.891Z,1.00
2023-04-11T12:19:12.854Z,0.70
2023-04-11T12:20:12.836Z,0.90
2023-04-11T12:21:12.868Z,1.00
2023-04-11T12:22:12.898Z,0.90
2023-04-11T12:23:12.807Z,0.80
2023-04-11T12:24:12.815Z,1.00
2023-04-11T12:25:12.795Z,1.20
2023-04-11T12:26:12.797Z,0.80
2023-04-11T12:27:12.772Z,0.90
2023-04-11T12:28:12.740Z,0.90
2023-04-11T12:29:12.730Z,0.90
2023-04-11T12:30:12.754Z,1.10
2023-04-11T12:31:12.845Z,1.10
2023-04-11T12:32:12.704Z,1.00
2023-04-11T12:33:12.721Z,1.00
2023-04-11T12:34:12.704Z,1.40
2023-04-11T12:35:12.695Z,1.00
2023-04-11T12:36:12.685Z,1.00
2023-04-11T12:37:12.648Z,0.90
2023-04-11T12:38:14.974Z,0.90
2023-04-11T12:39:12.719Z,0.90
2023-04-11T12:40:12.831Z,1.00
2023-04-11T12:41:30.790Z,1.00
2023-04-11T12:42:13.755Z,1.00
2023-04-11T12:43:12.617Z,0.80
2023-04-11T12:44:12.845Z,1.10
2023-04-11T12:45:12.695Z,1.40
2023-04-11T12:46:12.566Z,1.10
2023-04-11T12:47:12.539Z,1.50
2023-04-11T12:48:12.568Z,0.90
2023-04-11T12:49:12.552Z,1.40
2023-04-11T12:50:12.524Z,1.10
2023-04-11T12:51:12.528Z,1.10
2023-04-11T12:52:12.472Z,1.00
2023-04-11T12:53:12.480Z,1.00
2023-04-11T12:54:12.480Z,1.10
2023-04-11T12:55:12.476Z,1.10
2023-04-11T12:56:12.536Z,1.10
2023-04-11T12:57:12.489Z,1.00
2023-04-11T12:58:12.420Z,0.90
2023-04-11T12:59:12.426Z,0.80
2023-04-11T13:00:12.688Z,0.80
2023-04-11T13:01:12.403Z,0.90
2023-04-11T13:02:12.692Z,0.80
2023-04-11T13:03:12.538Z,1.20
2023-04-11T13:04:12.467Z,1.00
2023-04-11T13:05:12.430Z,1.00
2023-04-11T13:06:12.336Z,1.10
2023-04-11T13:07:12.314Z,0.80
2023-04-11T13:08:12.303Z,0.90
2023-04-11T13:09:12.326Z,1.00
2023-04-11T13:10:12.271Z,0.80
2023-04-11T13:11:12.300Z,1.00
2023-04-11T13:12:12.251Z,1.00
2023-04-11T13:14:12.292Z,1.30
2023-04-11T13:15:12.226Z,1.00
2023-04-11T13:16:12.283Z,0.80
2023-04-11T13:17:12.197Z,0.80
2023-04-11T13:18:12.274Z,1.00
2023-04-11T13:19:12.198Z,0.90
2023-04-11T13:20:12.259Z,1.00
2023-04-11T13:21:12.172Z,1.30
2023-04-11T13:22:12.150Z,0.90